Time;durP1;ratioP1;P1;durP2;ratioP2;P2;SDS_P1;SDS_P2;PMS_P1;PMS_P2;Temp;Humidity;BMP_temperature;BMP_pressure;BME280_temperature;BME280_humidity;BME280_pressure;Samples;Min_cycle;Max_cycle;Signal;HPM_P1;HPM_P2
2024/01/21 00:00:13;;;;;;;4.65;4.25;;;;;;;-0.73;69.00;95925.78;5135002;28;20195;-70
2024/01/21 00:02:40;;;;;;;5.30;4.80;;;;;;;-0.69;68.88;95927.94;5134541;28;20242;-70
2024/01/21 00:05:08;;;;;;;5.10;4.70;;;;;;;-0.66;68.85;95936.38;5134825;28;20191;-70
2024/01/21 00:07:38;;;;;;;5.80;5.20;;;;;;;-0.64;69.04;95939.66;5134512;28;20195;-70
2024/01/21 00:10:08;;;;;;;5.18;4.75;;;;;;;-0.63;68.77;95933.16;5135733;28;20217;-70
2024/01/21 00:12:35;;;;;;;4.88;4.43;;;;;;;-0.63;68.64;95935.03;5135824;27;20195;-70
2024/01/21 00:15:02;;;;;;;4.00;3.70;;;;;;;-0.63;68.91;95937.75;5138341;27;20226;-71
2024/01/21 00:17:30;;;;;;;3.72;3.42;;;;;;;-0.60;68.96;95946.19;5139142;27;20213;-71
2024/01/21 00:19:57;;;;;;;4.35;3.95;;;;;;;-0.60;68.35;95940.75;5138452;27;20199;-71
2024/01/21 00:22:24;;;;;;;3.85;3.55;;;;;;;-0.63;68.52;95941.28;5138436;27;20240;-71
2024/01/21 00:24:52;;;;;;;5.22;4.82;;;;;;;-0.67;69.19;95934.75;5138296;27;20626;-71
2024/01/21 00:27:18;;;;;;;5.20;4.80;;;;;;;-0.70;68.77;95939.88;5138404;27;20267;-71
2024/01/21 00:29:46;;;;;;;5.90;5.30;;;;;;;-0.67;68.91;95940.16;5138128;27;20263;-71
2024/01/21 00:32:13;;;;;;;4.65;4.25;;;;;;;-0.67;68.87;95939.34;5138588;27;20602;-71
2024/01/21 00:34:41;;;;;;;4.88;4.47;;;;;;;-0.68;68.93;95941.25;5138555;27;20244;-71
2024/01/21 00:37:08;;;;;;;3.35;3.05;;;;;;;-0.66;68.90;95941.78;5138986;27;20550;-71
2024/01/21 00:39:36;;;;;;;2.67;2.47;;;;;;;-0.61;68.66;95938.31;5139103;27;20594;-71
2024/01/21 00:42:03;;;;;;;2.85;2.65;;;;;;;-0.60;68.22;95934.53;5137840;27;20222;-71
2024/01/21 00:44:30;;;;;;;2.70;2.50;;;;;;;-0.63;68.47;95944.00;5137803;27;20207;-71
2024/01/21 00:46:57;;;;;;;2.63;2.42;;;;;;;-0.59;68.70;95945.09;5138732;27;20171;-72
2024/01/21 00:49:24;;;;;;;2.67;2.47;;;;;;;-0.55;68.30;95946.19;5138257;27;20195;-72
2024/01/21 00:51:53;;;;;;;2.58;2.38;;;;;;;-0.55;68.53;95946.19;5138815;27;20250;-72
2024/01/21 00:54:20;;;;;;;2.85;2.65;;;;;;;-0.59;68.58;95950.50;5138182;27;20195;-72
2024/01/21 00:56:47;;;;;;;3.17;2.97;;;;;;;-0.60;68.63;95945.38;5137640;27;20231;-69
2024/01/21 00:59:14;;;;;;;2.97;2.78;;;;;;;-0.55;68.50;95948.91;5137989;27;20276;-69
2024/01/21 01:01:41;;;;;;;2.90;2.70;;;;;;;-0.57;68.53;95948.38;5137860;27;20191;-70
2024/01/21 01:04:08;;;;;;;2.80;2.60;;;;;;;-0.60;68.55;95951.59;5138573;27;20207;-70
2024/01/21 01:06:35;;;;;;;2.92;2.72;;;;;;;-0.64;68.51;95953.19;5138353;27;20247;-70
2024/01/21 01:09:04;;;;;;;3.13;2.88;;;;;;;-0.62;68.76;95950.22;5137389;27;20227;-70
2024/01/21 01:11:31;;;;;;;3.97;3.55;;;;;;;-0.60;68.76;95951.59;5138071;27;20233;-69
2024/01/21 01:13:58;;;;;;;3.03;2.83;;;;;;;-0.62;68.23;95945.59;5137610;27;20294;-69
2024/01/21 01:16:25;;;;;;;2.97;2.78;;;;;;;-0.60;67.95;95954.31;5138475;27;20191;-69
2024/01/21 01:18:52;;;;;;;3.00;2.80;;;;;;;-0.60;68.53;95946.19;5137930;27;20248;-71
2024/01/21 01:21:19;;;;;;;2.80;2.60;;;;;;;-0.57;68.81;95952.97;5137121;27;20195;-71
2024/01/21 01:23:46;;;;;;;3.10;2.90;;;;;;;-0.54;68.46;95941.63;5137312;27;20226;-71
2024/01/21 01:26:15;;;;;;;3.30;3.00;;;;;;;-0.57;68.74;95950.28;5137053;27;20195;-71
2024/01/21 01:28:42;;;;;;;3.30;3.00;;;;;;;-0.59;68.55;95947.81;5136960;27;20292;-71
2024/01/21 01:31:08;;;;;;;3.88;3.50;;;;;;;-0.56;68.22;95947.28;5136831;27;20251;-71
2024/01/21 01:33:35;;;;;;;3.90;3.40;;;;;;;-0.61;68.50;95943.75;5137329;27;20202;-71
2024/01/21 01:36:02;;;;;;;3.97;3.58;;;;;;;-0.57;68.40;95948.38;5137005;27;20195;-71
2024/01/21 01:38:29;;;;;;;3.85;3.45;;;;;;;-0.56;68.44;95951.88;5137200;27;20248;-71
2024/01/21 01:40:56;;;;;;;3.58;3.28;;;;;;;-0.58;67.71;95951.31;5137758;27;20195;-70
2024/01/21 01:43:25;;;;;;;3.08;2.83;;;;;;;-0.54;68.34;95944.34;5137161;27;20248;-70
2024/01/21 01:45:52;;;;;;;3.05;2.85;;;;;;;-0.57;68.26;95945.66;5137135;27;20627;-70
2024/01/21 01:48:19;;;;;;;3.33;2.80;;;;;;;-0.58;68.38;95945.91;5137320;27;20195;-70
2024/01/21 01:50:46;;;;;;;3.03;2.80;;;;;;;-0.62;68.40;95950.22;5137431;27;20195;-70
2024/01/21 01:53:13;;;;;;;3.20;3.00;;;;;;;-0.62;68.59;95953.75;5137134;27;20223;-70
2024/01/21 01:55:40;;;;;;;3.08;2.88;;;;;;;-0.64;68.59;95950.50;5137288;27;20206;-70
2024/01/21 01:58:07;;;;;;;3.72;3.33;;;;;;;-0.66;68.68;95949.09;5137110;27;20216;-70
2024/01/21 02:00:36;;;;;;;4.32;3.92;;;;;;;-0.65;69.20;95951.56;5137265;27;20570;-71
2024/01/21 02:03:05;;;;;;;5.40;4.82;;;;;;;-0.75;69.02;95948.78;5137150;27;20207;-70
2024/01/21 02:05:32;;;;;;;4.93;4.53;;;;;;;-0.82;69.02;95957.13;5136799;27;20183;-70
2024/01/21 02:07:58;;;;;;;4.50;4.10;;;;;;;-0.81;69.56;95950.63;5136755;27;20202;-70
2024/01/21 02:10:27;;;;;;;4.18;3.88;;;;;;;-0.82;69.12;95953.59;5136957;27;20199;-70
2024/01/21 02:12:55;;;;;;;3.80;3.50;;;;;;;-0.84;69.55;95953.03;5136754;27;20195;-70
2024/01/21 02:15:22;;;;;;;4.22;3.83;;;;;;;-0.87;69.41;95956.25;5137193;27;20259;-71
2024/01/21 02:17:51;;;;;;;4.25;3.85;;;;;;;-0.86;69.48;95958.72;5136579;27;20226;-70
2024/01/21 02:20:18;;;;;;;3.30;3.00;;;;;;;-0.83;69.58;95958.22;5135938;27;20198;-70
2024/01/21 02:22:46;;;;;;;3.13;2.92;;;;;;;-0.83;69.59;95954.69;5136785;27;20222;-70
2024/01/21 02:25:15;;;;;;;3.30;3.10;;;;;;;-0.88;69.41;95955.44;5135804;27;20205;-70
2024/01/21 02:27:42;;;;;;;3.58;3.30;;;;;;;-0.90;69.57;95967.63;5135722;27;20203;-70
2024/01/21 02:30:09;;;;;;;3.65;3.42;;;;;;;-0.88;69.73;95968.19;5135806;27;20195;-70
2024/01/21 02:32:36;;;;;;;4.20;3.90;;;;;;;-0.91;69.29;95968.69;5137308;27;20179;-70
2024/01/21 02:35:03;;;;;;;3.75;3.45;;;;;;;-0.96;69.59;95974.88;5136631;27;20203;-70
2024/01/21 02:37:30;;;;;;;3.65;3.45;;;;;;;-1.00;69.21;95969.16;5135552;27;20195;-70
2024/01/21 02:39:57;;;;;;;4.10;3.80;;;;;;;-1.05;69.24;95981.88;5136163;27;20253;-70
2024/01/21 02:42:26;;;;;;;3.70;3.50;;;;;;;-1.06;69.64;95980.22;5136044;27;20246;-70
2024/01/21 02:44:53;;;;;;;3.67;3.38;;;;;;;-1.06;69.59;95986.44;5136799;27;20179;-70
2024/01/21 02:47:23;;;;;;;3.60;3.30;;;;;;;-1.08;69.31;95980.47;5135739;27;20184;-70
2024/01/21 02:49:50;;;;;;;3.20;2.90;;;;;;;-1.08;69.24;95971.53;5135820;27;20195;-70
2024/01/21 02:52:17;;;;;;;2.97;2.78;;;;;;;-1.07;69.07;95973.16;5135518;27;20207;-71
2024/01/21 02:54:44;;;;;;;2.78;2.58;;;;;;;-1.05;69.12;95977.25;5136395;27;20187;-71
2024/01/21 02:57:11;;;;;;;2.83;2.60;;;;;;;-1.07;68.81;95982.09;5135606;27;20252;-71
2024/01/21 02:59:40;;;;;;;2.83;2.58;;;;;;;-1.11;68.89;95986.41;5136086;27;20247;-70
2024/01/21 03:02:07;;;;;;;3.58;3.05;;;;;;;-1.10;69.07;95984.50;5136573;27;20264;-70
2024/01/21 03:04:34;;;;;;;3.05;2.80;;;;;;;-1.11;68.82;95989.13;5136176;27;20250;-70
2024/01/21 03:07:01;;;;;;;2.83;2.63;;;;;;;-1.15;68.74;96000.72;5135232;27;20195;-70
2024/01/21 03:09:28;;;;;;;3.88;3.58;;;;;;;-1.17;68.72;96000.16;5135332;27;20634;-70
2024/01/21 03:11:56;;;;;;;3.83;3.53;;;;;;;-1.20;68.41;95990.63;5136004;27;20248;-70
2024/01/21 03:14:23;;;;;;;3.40;3.20;;;;;;;-1.21;68.56;95989.81;5135476;27;20212;-71
2024/01/21 03:16:51;;;;;;;3.15;2.95;;;;;;;-1.23;68.49;95999.28;5136440;27;20258;-71
2024/01/21 03:19:18;;;;;;;4.00;3.70;;;;;;;-1.29;68.26;96003.81;5136741;27;20248;-71
2024/01/21 03:21:45;;;;;;;4.50;4.10;;;;;;;-1.31;68.38;96005.97;5136093;28;20195;-70
2024/01/21 03:24:12;;;;;;;5.50;5.00;;;;;;;-1.41;68.61;96011.28;5135520;28;20695;-70
2024/01/21 03:26:40;;;;;;;5.80;5.20;;;;;;;-1.49;68.76;96003.59;5135943;27;20179;-70
2024/01/21 03:29:06;;;;;;;4.90;4.50;;;;;;;-1.56;68.95;96009.22;5135334;28;20230;-70
2024/01/21 03:31:33;;;;;;;5.32;4.82;;;;;;;-1.58;69.30;96010.53;5135523;28;20226;-70
2024/01/21 03:34:03;;;;;;;5.38;4.88;;;;;;;-1.61;69.16;96011.03;5135197;28;20191;-70
2024/01/21 03:36:30;;;;;;;5.63;5.13;;;;;;;-1.64;68.74;96012.34;5135770;28;20210;-70
2024/01/21 03:38:57;;;;;;;5.40;4.93;;;;;;;-1.69;68.93;96009.59;5135157;28;20227;-70
2024/01/21 03:41:24;;;;;;;4.95;4.55;;;;;;;-1.75;68.84;96024.94;5135432;28;20574;-70
2024/01/21 03:43:51;;;;;;;5.43;4.93;;;;;;;-1.79;68.99;96020.28;5135549;28;20241;-70
2024/01/21 03:46:19;;;;;;;6.25;5.65;;;;;;;-1.84;69.46;96029.16;5135223;28;20187;-70
2024/01/21 03:48:46;;;;;;;5.15;4.75;;;;;;;-1.89;69.02;96026.38;5137889;27;20239;-70
2024/01/21 03:51:15;;;;;;;4.90;4.50;;;;;;;-1.92;69.35;96034.19;5139764;27;20195;-70
2024/01/21 03:53:41;;;;;;;4.45;4.15;;;;;;;-1.96;69.84;96037.41;5138871;27;20310;-70
2024/01/21 03:56:09;;;;;;;3.00;2.80;;;;;;;-1.94;69.73;96031.75;5139505;27;20220;-70
2024/01/21 03:58:36;;;;;;;2.90;2.70;;;;;;;-1.92;69.53;96036.88;5139428;27;20562;-70
2024/01/21 04:01:03;;;;;;;2.40;2.25;;;;;;;-1.92;69.30;96048.53;5138749;27;20225;-70
2024/01/21 04:03:30;;;;;;;2.80;2.60;;;;;;;-1.94;69.21;96043.38;5138654;27;20219;-70
2024/01/21 04:05:57;;;;;;;2.30;2.15;;;;;;;-1.97;68.86;96049.28;5138889;27;20230;-70
2024/01/21 04:08:25;;;;;;;3.00;2.80;;;;;;;-2.02;68.87;96051.91;5139134;27;20187;-70
2024/01/21 04:10:54;;;;;;;3.20;3.00;;;;;;;-2.01;68.69;96056.25;5138513;27;20256;-70
2024/01/21 04:13:21;;;;;;;3.00;2.80;;;;;;;-2.02;68.64;96059.22;5139050;27;20202;-70
2024/01/21 04:15:48;;;;;;;3.63;3.30;;;;;;;-2.04;68.98;96059.44;5139396;27;20256;-70
2024/01/21 04:18:15;;;;;;;3.10;2.90;;;;;;;-2.10;68.07;96067.75;5138916;27;20187;-70
2024/01/21 04:20:41;;;;;;;2.95;2.75;;;;;;;-2.20;68.54;96069.22;5138215;27;20630;-70
2024/01/21 04:23:08;;;;;;;2.90;2.70;;;;;;;-2.22;68.43;96065.94;5138737;27;20207;-70
2024/01/21 04:25:37;;;;;;;3.05;2.80;;;;;;;-2.24;68.54;96070.81;5139342;27;20244;-70
2024/01/21 04:28:04;;;;;;;2.65;2.45;;;;;;;-2.29;68.28;96068.03;5139042;27;20266;-70
2024/01/21 04:30:31;;;;;;;2.83;2.60;;;;;;;-2.32;68.04;96070.41;5138987;27;20298;-70
2024/01/21 04:32:58;;;;;;;2.92;2.65;;;;;;;-2.35;67.99;96082.53;5138306;27;20259;-70
2024/01/21 04:35:25;;;;;;;2.80;2.60;;;;;;;-2.38;68.09;96084.91;5138185;27;20683;-70
2024/01/21 04:37:52;;;;;;;2.88;2.67;;;;;;;-2.47;68.43;96088.03;5138031;27;20195;-70
2024/01/21 04:40:19;;;;;;;2.78;2.58;;;;;;;-2.53;67.96;96089.00;5138892;27;20191;-71
2024/01/21 04:42:48;;;;;;;2.88;2.67;;;;;;;-2.58;68.43;96086.19;5137854;27;20228;-71
2024/01/21 04:45:16;;;;;;;3.22;2.92;;;;;;;-2.59;68.59;96091.84;5139031;27;20187;-71
2024/01/21 04:47:43;;;;;;;3.95;3.65;;;;;;;-2.69;68.39;96096.03;5137747;27;20651;-71
2024/01/21 04:50:11;;;;;;;6.22;5.72;;;;;;;-2.87;68.38;96095.41;5137970;27;20199;-71
2024/01/21 04:52:38;;;;;;;7.45;6.75;;;;;;;-3.09;67.92;96098.81;5138516;27;20198;-71
2024/01/21 04:55:05;;;;;;;7.85;7.15;;;;;;;-3.31;68.27;96100.53;5138294;27;20270;-71
2024/01/21 04:57:32;;;;;;;7.55;6.95;;;;;;;-3.48;68.34;96098.63;5138187;27;20194;-70
2024/01/21 05:00:01;;;;;;;7.85;7.15;;;;;;;-3.65;68.95;96105.81;5138612;27;20186;-70
2024/01/21 05:02:28;;;;;;;7.90;7.20;;;;;;;-3.78;69.38;96114.16;5138413;27;20215;-71
2024/01/21 05:04:55;;;;;;;8.55;7.85;;;;;;;-3.82;69.36;96112.97;5137571;27;20237;-71
2024/01/21 05:07:22;;;;;;;8.38;7.63;;;;;;;-3.83;69.45;96119.44;5137695;27;20233;-71
2024/01/21 05:09:48;;;;;;;7.90;7.20;;;;;;;-3.85;69.70;96119.66;5138263;27;20252;-71
2024/01/21 05:12:15;;;;;;;7.88;7.20;;;;;;;-3.87;69.90;96125.31;5138335;27;20244;-71
2024/01/21 05:14:42;;;;;;;7.85;7.25;;;;;;;-3.87;69.80;96127.19;5138365;27;20199;-71
2024/01/21 05:17:11;;;;;;;7.07;6.47;;;;;;;-3.88;69.77;96123.66;5138461;27;20183;-71
2024/01/21 05:19:38;;;;;;;9.15;8.35;;;;;;;-3.92;69.89;96127.06;5137787;27;20195;-71
2024/01/21 05:22:05;;;;;;;8.98;8.18;;;;;;;-3.96;69.54;96133.97;5137090;27;20637;-71
2024/01/21 05:24:34;;;;;;;8.07;7.38;;;;;;;-3.99;70.13;96129.88;5136969;27;20219;-71
2024/01/21 05:27:01;;;;;;;5.18;4.78;;;;;;;-3.97;70.43;96135.84;5137774;27;20260;-71
2024/01/21 05:29:28;;;;;;;5.10;4.68;;;;;;;-3.93;70.43;96145.09;5137303;27;20238;-71
2024/01/21 05:31:55;;;;;;;6.32;5.82;;;;;;;-3.92;70.67;96143.25;5138204;27;20255;-70
2024/01/21 05:34:23;;;;;;;7.43;6.82;;;;;;;-3.96;70.48;96145.59;5137703;27;20183;-70
2024/01/21 05:36:50;;;;;;;7.22;6.63;;;;;;;-3.99;70.04;96147.94;5137612;27;20203;-70
2024/01/21 05:39:17;;;;;;;6.25;5.75;;;;;;;-4.07;69.91;96146.38;5137631;27;20195;-70
2024/01/21 05:41:44;;;;;;;8.18;7.47;;;;;;;-4.16;70.31;96148.63;5137285;27;20240;-71
2024/01/21 05:44:11;;;;;;;7.85;7.15;;;;;;;-4.26;69.68;96161.03;5136865;27;20267;-71
2024/01/21 05:46:38;;;;;;;7.82;7.13;;;;;;;-4.33;70.17;96157.63;5137509;27;20684;-70
2024/01/21 05:49:05;;;;;;;6.82;6.22;;;;;;;-4.39;69.44;96162.91;5136621;27;20199;-69
2024/01/21 05:51:33;;;;;;;12.48;11.57;;;;;;;-4.40;69.74;96168.50;5137184;27;20203;-69
2024/01/21 05:54:00;;;;;;;8.60;7.97;;;;;;;-4.45;69.70;96171.91;5136947;27;20297;-69
2024/01/21 05:56:27;;;;;;;7.25;6.65;;;;;;;-4.44;69.97;96170.03;5136964;27;20599;-71
2024/01/21 05:58:54;;;;;;;6.70;6.20;;;;;;;-4.46;70.17;96167.56;5137250;27;20246;-68
2024/01/21 06:01:21;;;;;;;6.90;6.30;;;;;;;-4.46;70.59;96170.28;5137295;27;20223;-75
2024/01/21 06:03:48;;;;;;;6.38;5.88;;;;;;;-4.49;70.13;96180.69;5136375;27;20263;-70
2024/01/21 06:06:15;;;;;;;6.53;6.03;;;;;;;-4.56;69.65;96179.97;5137589;27;20186;-71
2024/01/21 06:08:43;;;;;;;6.95;6.35;;;;;;;-4.57;70.43;96181.84;5136798;27;20209;-68
2024/01/21 06:11:10;;;;;;;7.20;6.60;;;;;;;-4.58;70.61;96177.47;5136277;27;20190;-69
2024/01/21 06:13:37;;;;;;;7.05;6.45;;;;;;;-4.54;70.65;96185.91;5137013;27;20203;-69
2024/01/21 06:16:05;;;;;;;9.25;8.45;;;;;;;-4.53;71.06;96187.59;5136659;27;20194;-69
2024/01/21 06:18:32;;;;;;;8.77;8.07;;;;;;;-4.53;70.26;96190.28;5136583;27;20195;-69
2024/01/21 06:20:59;;;;;;;8.55;7.85;;;;;;;-4.53;70.52;96183.00;5136827;27;20224;-68
2024/01/21 06:23:26;;;;;;;9.05;8.30;;;;;;;-4.48;71.27;96188.50;5135965;27;20252;-68
2024/01/21 06:25:54;;;;;;;10.13;9.32;;;;;;;-4.43;70.97;96185.97;5136216;27;20244;-69
2024/01/21 06:28:21;;;;;;;9.88;9.07;;;;;;;-4.42;70.92;96194.88;5137075;27;20248;-69
2024/01/21 06:30:47;;;;;;;9.70;8.90;;;;;;;-4.38;71.58;96186.09;5135850;27;20237;-68
2024/01/21 06:33:14;;;;;;;6.97;6.47;;;;;;;-4.23;71.72;96179.44;5136546;27;20203;-71
2024/01/21 06:35:41;;;;;;;5.35;4.95;;;;;;;-4.11;71.55;96186.47;5135948;27;20199;-71
2024/01/21 06:38:08;;;;;;;6.93;6.43;;;;;;;-4.00;71.65;96184.00;5136507;27;20199;-71
2024/01/21 06:40:35;;;;;;;6.13;5.72;;;;;;;-3.95;71.09;96184.97;5136169;27;20179;-71
2024/01/21 06:43:03;;;;;;;6.50;6.00;;;;;;;-3.88;71.06;96182.97;5135895;27;20187;-71
2024/01/21 06:45:30;;;;;;;6.63;6.03;;;;;;;-3.85;71.15;96186.22;5137040;27;20195;-72
2024/01/21 06:47:57;;;;;;;6.13;5.63;;;;;;;-3.80;71.05;96189.88;5135607;27;20247;-72
2024/01/21 06:50:26;;;;;;;5.70;5.30;;;;;;;-3.74;71.45;96201.59;5136018;27;20251;-72
2024/01/21 06:52:53;;;;;;;5.70;5.30;;;;;;;-3.64;71.39;96201.81;5135915;27;20574;-71
2024/01/21 06:55:20;;;;;;;6.90;6.30;;;;;;;-3.59;71.38;96206.53;5136557;27;20187;-72
2024/01/21 06:57:47;;;;;;;6.85;6.25;;;;;;;-3.54;71.33;96206.63;5135430;27;20216;-72
2024/01/21 07:00:17;;;;;;;7.28;6.63;;;;;;;-3.44;71.35;96206.84;5135643;27;20622;-72
2024/01/21 07:02:44;;;;;;;4.85;4.45;;;;;;;-3.30;71.43;96207.44;5136493;27;20191;-72
2024/01/21 07:05:11;;;;;;;4.78;4.28;;;;;;;-3.18;71.24;96219.00;5135124;27;20214;-75
2024/01/21 07:07:38;;;;;;;3.67;3.47;;;;;;;-3.01;70.39;96214.50;5136173;27;20622;-76
2024/01/21 07:10:06;;;;;;;5.47;4.97;;;;;;;-2.86;70.35;96222.09;5135179;27;20703;-73
2024/01/21 07:12:33;;;;;;;4.80;4.45;;;;;;;-2.73;70.10;96221.78;5136214;27;20186;-73
2024/01/21 07:15:00;;;;;;;4.93;4.53;;;;;;;-2.65;69.28;96228.72;5135684;27;20595;-72
2024/01/21 07:17:28;;;;;;;5.00;4.53;;;;;;;-2.53;68.83;96225.94;5136072;28;20444;-78
2024/01/21 07:19:55;;;;;;;4.60;4.20;;;;;;;-2.39;68.76;96218.38;5135561;28;20213;-75
2024/01/21 07:22:22;;;;;;;5.40;5.00;;;;;;;-2.35;68.04;96228.44;5134569;27;20415;-76
2024/01/21 07:24:49;;;;;;;6.43;5.93;;;;;;;-2.34;67.88;96231.97;5139986;27;20219;-76
2024/01/21 07:27:16;;;;;;;7.20;6.68;;;;;;;-2.34;67.71;96234.66;5139401;27;20199;-76
2024/01/21 07:29:43;;;;;;;8.70;7.82;;;;;;;-2.23;68.22;96233.78;5139316;27;20238;-76
2024/01/21 07:32:10;;;;;;;7.68;7.00;;;;;;;-2.06;67.76;96236.50;5140459;27;20206;-76
2024/01/21 07:34:38;;;;;;;6.82;6.30;;;;;;;-1.88;67.64;96235.44;5140108;27;20206;-76
2024/01/21 07:37:05;;;;;;;6.97;6.47;;;;;;;-1.80;66.85;96233.16;5140047;27;20187;-75
2024/01/21 07:39:33;;;;;;;6.47;5.97;;;;;;;-1.70;66.56;96237.91;5139331;27;20607;-74
2024/01/21 07:42:00;;;;;;;7.65;7.05;;;;;;;-1.55;66.44;96237.31;5140187;27;20586;-74
2024/01/21 07:44:27;;;;;;;7.28;6.68;;;;;;;-1.46;66.41;96241.22;5139369;27;20214;-74
2024/01/21 07:46:55;;;;;;;7.15;6.55;;;;;;;-1.31;65.55;96236.06;5139362;27;20191;-75
2024/01/21 07:49:22;;;;;;;7.40;6.82;;;;;;;-1.23;65.46;96238.31;5139735;27;20198;-75
2024/01/21 07:51:51;;;;;;;6.80;6.20;;;;;;;-1.12;65.35;96239.28;5139611;27;20194;-76
2024/01/21 07:54:18;;;;;;;6.10;5.60;;;;;;;-1.03;64.83;96228.81;5140045;27;20216;-76
2024/01/21 07:56:45;;;;;;;6.15;5.65;;;;;;;-1.04;64.58;96240.75;5140195;27;20222;-74
2024/01/21 07:59:12;;;;;;;6.10;5.60;;;;;;;-0.85;64.94;96243.94;5139423;27;20221;-74
2024/01/21 08:01:39;;;;;;;6.35;5.85;;;;;;;-0.70;64.41;96238.72;5139271;27;20199;-74
2024/01/21 08:04:06;;;;;;;5.80;5.40;;;;;;;-0.54;64.72;96243.25;5139090;27;20218;-73
2024/01/21 08:06:33;;;;;;;6.35;5.85;;;;;;;-0.40;63.77;96248.25;5138789;27;20206;-74
2024/01/21 08:09:03;;;;;;;5.50;5.10;;;;;;;-0.28;63.05;96251.66;5139216;27;20195;-76
2024/01/21 08:11:30;;;;;;;5.68;5.28;;;;;;;-0.18;63.30;96245.50;5139444;27;20214;-76
2024/01/21 08:13:57;;;;;;;5.45;4.95;;;;;;;-0.11;62.69;96249.66;5138857;27;20194;-76
2024/01/21 08:16:24;;;;;;;5.05;4.65;;;;;;;-0.07;61.36;96245.38;5138427;27;20206;-76
2024/01/21 08:18:51;;;;;;;5.07;4.70;;;;;;;-0.03;61.91;96254.63;5138578;27;20190;-76
2024/01/21 08:21:18;;;;;;;5.30;4.80;;;;;;;0.07;61.31;96253.06;5138941;27;20198;-76
2024/01/21 08:23:45;;;;;;;4.18;3.88;;;;;;;0.16;61.33;96260.47;5139246;27;20210;-73
2024/01/21 08:26:14;;;;;;;4.50;4.20;;;;;;;0.22;60.71;96269.50;5138436;27;20211;-73
2024/01/21 08:28:40;;;;;;;4.70;4.40;;;;;;;0.34;61.15;96261.19;5138390;27;20249;-73
2024/01/21 08:31:07;;;;;;;4.30;4.00;;;;;;;0.54;61.05;96268.66;5137483;27;20464;-74
2024/01/21 08:33:35;;;;;;;3.60;3.40;;;;;;;0.66;59.80;96272.03;5138260;27;20521;-76
2024/01/21 08:36:03;;;;;;;4.50;4.20;;;;;;;0.73;59.86;96272.63;5138460;27;20203;-74
2024/01/21 08:38:30;;;;;;;4.35;4.05;;;;;;;0.66;59.01;96272.84;5138267;27;20646;-75
2024/01/21 08:40:57;;;;;;;4.65;4.32;;;;;;;0.64;59.54;96274.16;5139395;27;20191;-74
2024/01/21 08:43:25;;;;;;;4.30;4.00;;;;;;;0.68;59.56;96275.28;5138436;27;20195;-76
2024/01/21 08:45:52;;;;;;;5.18;4.78;;;;;;;0.71;59.38;96277.47;5138442;27;20211;-77
2024/01/21 08:48:19;;;;;;;5.38;4.97;;;;;;;0.68;59.38;96283.41;5138537;27;20244;-76
2024/01/21 08:50:46;;;;;;;5.30;4.90;;;;;;;0.89;59.95;96287.09;5138971;27;20195;-75
2024/01/21 08:53:14;;;;;;;4.85;4.45;;;;;;;1.04;59.44;96283.66;5137777;27;20286;-75
2024/01/21 08:55:41;;;;;;;4.88;4.57;;;;;;;1.08;59.33;96282.88;5138134;27;20282;-74
2024/01/21 08:58:08;;;;;;;4.13;3.83;;;;;;;1.24;58.91;96281.06;5138148;27;20199;-74
2024/01/21 09:00:36;;;;;;;3.95;3.65;;;;;;;1.47;58.91;96279.81;5138474;27;20209;-75
2024/01/21 09:03:04;;;;;;;3.80;3.60;;;;;;;1.62;59.09;96285.28;5137762;27;20517;-76
2024/01/21 09:05:31;;;;;;;4.38;4.07;;;;;;;1.78;58.84;96285.34;5138135;27;20215;-74
2024/01/21 09:07:58;;;;;;;4.70;4.40;;;;;;;1.92;58.10;96279.16;5137815;27;20195;-76
2024/01/21 09:10:24;;;;;;;5.22;4.82;;;;;;;2.05;57.42;96282.44;5137991;27;20187;-77
2024/01/21 09:12:51;;;;;;;5.43;5.03;;;;;;;2.11;56.90;96274.00;5137354;27;20685;-76
2024/01/21 09:15:21;;;;;;;4.97;4.57;;;;;;;2.22;57.18;96272.13;5138362;27;20248;-76
2024/01/21 09:17:50;;;;;;;4.30;4.05;;;;;;;2.21;56.28;96266.94;5137691;27;20515;-76
2024/01/21 09:20:17;;;;;;;4.50;4.20;;;;;;;2.27;56.11;96261.22;5138251;27;20205;-76
2024/01/21 09:22:45;;;;;;;4.80;4.40;;;;;;;2.27;54.95;96271.31;5137893;27;20272;-77
2024/01/21 09:25:12;;;;;;;4.90;4.60;;;;;;;2.13;55.76;96273.72;5137600;27;20225;-76
2024/01/21 09:27:38;;;;;;;4.75;4.45;;;;;;;2.14;55.90;96268.03;5137211;27;20222;-76
2024/01/21 09:30:06;;;;;;;4.88;4.50;;;;;;;2.25;56.91;96262.56;5138119;27;20283;-76
2024/01/21 09:32:33;;;;;;;4.90;4.50;;;;;;;2.38;55.78;96264.78;5138006;27;20214;-76
2024/01/21 09:35:01;;;;;;;4.60;4.30;;;;;;;2.49;55.89;96266.41;5137108;27;20206;-76
2024/01/21 09:37:28;;;;;;;4.03;3.72;;;;;;;2.65;55.76;96267.22;5136852;27;20216;-74
2024/01/21 09:39:55;;;;;;;4.28;3.97;;;;;;;2.68;54.45;96266.66;5136833;27;20191;-74
2024/01/21 09:42:22;;;;;;;4.80;4.47;;;;;;;2.64;53.83;96266.41;5137817;27;20188;-74
2024/01/21 09:44:49;;;;;;;5.13;4.72;;;;;;;2.67;55.12;96261.50;5137129;27;20211;-74
2024/01/21 09:47:17;;;;;;;5.13;4.72;;;;;;;2.72;54.52;96251.41;5136630;27;20187;-74
2024/01/21 09:49:46;;;;;;;5.40;5.00;;;;;;;2.96;55.78;96243.47;5137416;27;20198;-75
2024/01/21 09:52:15;;;;;;;5.13;4.72;;;;;;;3.25;53.10;96242.88;5137284;27;20191;-75
2024/01/21 09:54:42;;;;;;;5.10;4.70;;;;;;;3.19;53.41;96236.59;5136512;27;20693;-75
2024/01/21 09:57:11;;;;;;;5.45;5.05;;;;;;;3.64;53.26;96245.72;5137290;27;20205;-75
2024/01/21 09:59:38;;;;;;;5.45;5.05;;;;;;;3.93;51.67;96245.03;5136501;27;20238;-74
2024/01/21 10:02:06;;;;;;;5.53;5.13;;;;;;;4.17;50.73;96236.94;5136885;27;20186;-74
2024/01/21 10:04:33;;;;;;;5.88;5.40;;;;;;;4.51;50.96;96243.25;5136542;27;20191;-74
2024/01/21 10:07:00;;;;;;;6.13;5.63;;;;;;;4.72;49.05;96243.91;5136965;27;20307;-75
2024/01/21 10:09:30;;;;;;;6.20;5.60;;;;;;;4.81;49.20;96233.97;5136541;27;20276;-75
2024/01/21 10:11:59;;;;;;;4.25;3.90;;;;;;;4.92;48.37;96233.88;5136706;27;20195;-74
2024/01/21 10:14:26;;;;;;;5.50;5.10;;;;;;;5.16;48.35;96234.72;5136719;27;20194;-74
2024/01/21 10:16:53;;;;;;;6.07;5.57;;;;;;;5.48;48.33;96225.88;5137350;27;20194;-74
2024/01/21 10:19:26;;;;;;;5.38;4.97;;;;;;;5.56;47.40;96227.16;5136026;27;20191;-74
2024/01/21 10:21:53;;;;;;;5.53;5.03;;;;;;;5.57;46.91;96227.97;5136234;27;20191;-74
2024/01/21 10:24:23;;;;;;;5.80;5.30;;;;;;;5.06;47.48;96223.88;5136542;27;20225;-74
2024/01/21 10:26:53;;;;;;;5.65;5.25;;;;;;;5.10;47.78;96222.19;5136351;27;20325;-74
2024/01/21 10:29:20;;;;;;;6.20;5.40;;;;;;;5.65;47.18;96222.63;5135818;27;20262;-75
2024/01/21 10:31:49;;;;;;;6.22;5.63;;;;;;;5.60;46.51;96221.91;5136231;27;20195;-73
2024/01/21 10:34:17;;;;;;;5.60;5.20;;;;;;;5.63;45.16;96227.59;5119017;27;20230;-74
2024/01/21 10:36:45;;;;;;;6.50;5.90;;;;;;;5.48;46.74;96220.41;5135878;27;20634;-74
2024/01/21 10:39:17;;;;;;;6.97;6.38;;;;;;;5.75;47.16;96217.03;5136179;27;20217;-76
2024/01/21 10:41:45;;;;;;;6.32;5.72;;;;;;;5.98;45.97;96223.59;5135663;27;20282;-75
2024/01/21 10:44:14;;;;;;;5.68;5.18;;;;;;;6.22;44.51;96214.50;5136210;27;20198;-74
2024/01/21 10:46:42;;;;;;;6.13;5.63;;;;;;;6.44;46.22;96205.66;5135561;27;20214;-74
2024/01/21 10:49:10;;;;;;;6.07;5.57;;;;;;;6.83;44.02;96199.78;5135859;27;20512;-74
2024/01/21 10:51:37;;;;;;;5.68;5.18;;;;;;;6.64;43.05;96194.34;5136531;27;20198;-74
2024/01/21 10:54:05;;;;;;;5.93;5.43;;;;;;;6.41;44.22;96209.81;5136115;27;20191;-76
2024/01/21 10:56:32;;;;;;;6.35;5.85;;;;;;;6.26;43.91;96202.63;5136006;27;20199;-76
2024/01/21 10:58:59;;;;;;;5.90;5.50;;;;;;;6.47;44.16;96200.41;5135916;27;20190;-76
2024/01/21 11:01:28;;;;;;;6.05;5.65;;;;;;;6.51;43.30;96198.69;5135646;27;20202;-76
2024/01/21 11:04:06;;;;;;;5.80;5.40;;;;;;;6.32;43.33;96197.06;5135728;27;20187;-76
2024/01/21 11:06:33;;;;;;;4.90;4.50;;;;;;;6.22;42.99;96195.31;5135894;27;20219;-76
2024/01/21 11:09:03;;;;;;;5.00;4.70;;;;;;;5.83;44.08;96198.31;5135230;27;20215;-77
2024/01/21 11:11:30;;;;;;;5.40;5.00;;;;;;;5.74;44.95;96200.91;5135506;27;20206;-77
2024/01/21 11:13:58;;;;;;;4.63;4.32;;;;;;;6.14;43.27;96199.53;5135840;27;20191;-76
2024/01/21 11:16:38;;;;;;;4.75;4.35;;;;;;;6.51;43.11;96195.13;5135648;27;20272;-77
2024/01/21 11:19:07;;;;;;;4.60;4.30;;;;;;;7.01;41.89;96192.63;5136171;27;20206;-77
2024/01/21 11:21:35;;;;;;;4.78;4.47;;;;;;;7.05;40.79;96192.81;5136011;28;20198;-76
2024/01/21 11:24:08;;;;;;;5.40;5.00;;;;;;;7.16;40.38;96189.56;5135154;27;20191;-76
2024/01/21 11:26:37;;;;;;;5.72;5.32;;;;;;;7.31;40.76;96193.16;5135130;28;20225;-76
2024/01/21 11:29:22;;;;;;;5.13;4.72;;;;;;;7.64;39.62;96185.59;5135018;28;20593;-76
2024/01/21 11:31:51;;;;;;;5.60;5.10;;;;;;;7.85;38.83;96192.28;5135617;28;20233;-77
2024/01/21 11:34:18;;;;;;;5.45;5.03;;;;;;;7.91;39.24;96187.47;5135081;28;20199;-77
2024/01/21 11:36:46;;;;;;;5.25;4.85;;;;;;;8.42;38.34;96175.31;5135488;28;20199;-76